createdAt,value
2022-07-31T00:00:01.566Z,20.2
2022-07-31T00:01:01.155Z,20.1
2022-07-31T00:02:01.722Z,20.2
2022-07-31T00:03:01.346Z,20.1
2022-07-31T00:04:00.887Z,20.1
2022-07-31T00:05:01.461Z,20.1
2022-07-31T00:06:01.059Z,20.1
2022-07-31T00:07:01.934Z,20.2
2022-07-31T00:08:01.277Z,20.2
2022-07-31T00:09:01.850Z,20.3
2022-07-31T00:10:01.424Z,20.1
2022-07-31T00:11:01.002Z,20.1
2022-07-31T00:12:01.590Z,20.1
2022-07-31T00:13:01.176Z,20
2022-07-31T00:14:01.736Z,19.9
2022-07-31T00:15:01.313Z,19.7
2022-07-31T00:16:00.889Z,19.7
2022-07-31T00:17:01.787Z,19.8
2022-07-31T00:18:01.139Z,19.7
2022-07-31T00:19:01.701Z,19.7
2022-07-31T00:20:01.278Z,19.7
2022-07-31T00:21:01.851Z,19.7
2022-07-31T00:22:01.426Z,19.7
2022-07-31T00:23:01.017Z,19.7
2022-07-31T00:24:01.650Z,19.6
2022-07-31T00:25:01.223Z,19.6
2022-07-31T00:26:01.800Z,19.6
2022-07-31T00:27:01.776Z,19.5
2022-07-31T00:28:01.475Z,19.5
2022-07-31T00:29:01.052Z,19.5
2022-07-31T00:30:01.630Z,19.4
2022-07-31T00:31:01.754Z,19.3
2022-07-31T00:32:01.327Z,19.3
2022-07-31T00:33:00.917Z,19.3
2022-07-31T00:34:01.488Z,19.3
2022-07-31T00:35:01.080Z,19.3
2022-07-31T00:36:01.642Z,19.2
2022-07-31T00:37:01.422Z,19.3
2022-07-31T00:38:26.073Z,19.1
2022-07-31T00:39:01.335Z,19.2
2022-07-31T00:40:00.923Z,19.1
2022-07-31T00:41:01.489Z,19.1
2022-07-31T00:42:01.059Z,19
2022-07-31T00:43:01.633Z,19
2022-07-31T00:44:01.206Z,18.9
2022-07-31T00:45:01.791Z,18.9
2022-07-31T00:46:01.382Z,18.9
2022-07-31T00:47:01.851Z,18.8
2022-07-31T00:48:01.661Z,18.7
2022-07-31T00:49:01.236Z,18.7
2022-07-31T00:50:01.778Z,18.6
2022-07-31T00:51:01.369Z,18.6
2022-07-31T00:52:00.938Z,18.6
2022-07-31T00:53:01.507Z,18.5
2022-07-31T00:54:01.167Z,18.5
2022-07-31T00:55:01.737Z,18.5
2022-07-31T00:56:01.331Z,18.4
2022-07-31T00:57:02.131Z,18.5
2022-07-31T00:58:01.885Z,18.4
2022-07-31T00:59:01.107Z,18.5
2022-07-31T01:00:01.682Z,18.4
2022-07-31T01:01:01.361Z,18.4
2022-07-31T01:02:01.833Z,18.4
2022-07-31T01:03:01.406Z,18.4
2022-07-31T01:04:00.979Z,18.3
2022-07-31T01:05:01.556Z,18.3
2022-07-31T01:06:01.146Z,18.3
2022-07-31T01:07:01.930Z,18.3
2022-07-31T01:08:01.357Z,18.3
2022-07-31T01:09:00.929Z,18.2
2022-07-31T01:10:01.503Z,18.2
2022-07-31T01:11:01.171Z,18.1
2022-07-31T01:12:01.753Z,17.9
2022-07-31T01:13:01.325Z,17.9
2022-07-31T01:14:00.897Z,17.9
2022-07-31T01:15:01.472Z,17.9
2022-07-31T01:16:01.045Z,17.9
2022-07-31T01:17:01.946Z,17.8
2022-07-31T01:18:01.281Z,17.7
2022-07-31T01:19:01.861Z,17.6
2022-07-31T01:20:01.436Z,17.6
2022-07-31T01:21:01.022Z,17.5
2022-07-31T01:22:01.620Z,17.6
2022-07-31T01:23:01.156Z,17.5
2022-07-31T01:24:01.730Z,17.5
2022-07-31T01:25:01.388Z,17.4
2022-07-31T01:26:01.888Z,17.4
2022-07-31T01:27:01.705Z,17.4
2022-07-31T01:28:01.138Z,17.4
2022-07-31T01:29:01.697Z,17.4
2022-07-31T01:30:01.277Z,17.5
2022-07-31T01:31:17.544Z,17.4
2022-07-31T01:32:01.410Z,17.5
2022-07-31T01:33:00.983Z,17.4
2022-07-31T01:34:01.558Z,17.4
2022-07-31T01:35:01.148Z,17.3
2022-07-31T01:36:01.703Z,17.4
2022-07-31T01:37:01.868Z,17.3
2022-07-31T01:38:01.613Z,17.3
2022-07-31T01:39:01.189Z,17.3
2022-07-31T01:40:01.764Z,17.3
2022-07-31T01:41:01.340Z,17.3
2022-07-31T01:42:01.275Z,17.4
2022-07-31T01:43:01.066Z,17.3
2022-07-31T01:44:01.639Z,17.3
2022-07-31T01:45:01.731Z,17.3
2022-07-31T01:46:01.395Z,17.2
2022-07-31T01:47:01.338Z,17.1
2022-07-31T01:48:01.204Z,17
2022-07-31T01:49:01.893Z,16.9
2022-07-31T01:50:01.438Z,16.9
2022-07-31T01:51:01.013Z,16.8
2022-07-31T01:52:02.751Z,16.8
2022-07-31T01:53:01.143Z,16.8
2022-07-31T01:54:01.716Z,16.8
2022-07-31T01:55:01.288Z,16.7
2022-07-31T01:56:04.170Z,16.7
2022-07-31T01:57:01.400Z,16.7
2022-07-31T01:58:01.003Z,16.8
2022-07-31T01:59:01.550Z,16.8
2022-07-31T02:00:01.151Z,16.8
2022-07-31T02:01:01.741Z,16.8
2022-07-31T02:02:01.463Z,16.8
2022-07-31T02:03:09.679Z,16.8
2022-07-31T02:04:01.298Z,16.7
2022-07-31T02:05:00.975Z,16.6
2022-07-31T02:06:01.573Z,16.4
2022-07-31T02:07:00.974Z,16.5
2022-07-31T02:08:01.548Z,16.4
2022-07-31T02:09:01.120Z,16.4
2022-07-31T02:10:01.693Z,16.5
2022-07-31T02:11:01.292Z,16.4
2022-07-31T02:12:01.856Z,16.4
2022-07-31T02:13:01.761Z,16.5
2022-07-31T02:14:01.075Z,16.4
2022-07-31T02:15:01.652Z,16.5
2022-07-31T02:16:01.250Z,16.5
2022-07-31T02:17:01.785Z,16.6
2022-07-31T02:18:01.357Z,16.7
2022-07-31T02:19:00.929Z,16.6
2022-07-31T02:20:01.516Z,16.7
2022-07-31T02:21:01.114Z,16.5
2022-07-31T02:22:02.026Z,16.6
2022-07-31T02:23:01.323Z,16.6
2022-07-31T02:24:01.894Z,16.6
2022-07-31T02:25:01.488Z,16.7
2022-07-31T02:26:01.158Z,16.5
2022-07-31T02:27:01.637Z,16.5
2022-07-31T02:28:01.211Z,16.5
2022-07-31T02:29:01.785Z,16.5
2022-07-31T02:30:01.382Z,16.5
2022-07-31T02:31:00.933Z,16.6
2022-07-31T02:32:09.372Z,16.6
2022-07-31T02:33:01.064Z,16.6
2022-07-31T02:34:01.641Z,16.6
2022-07-31T02:35:01.214Z,16.8
2022-07-31T02:36:01.792Z,16.9
2022-07-31T02:37:01.407Z,16.9
2022-07-31T02:38:00.955Z,16.9
2022-07-31T02:39:01.538Z,17
2022-07-31T02:40:01.113Z,17.1
2022-07-31T02:41:01.711Z,17.1
2022-07-31T02:42:02.014Z,17.1
2022-07-31T02:43:01.858Z,17.2
2022-07-31T02:44:01.310Z,17.3
2022-07-31T02:45:01.885Z,17.4
2022-07-31T02:46:01.457Z,17.4
2022-07-31T02:47:01.035Z,17.4
2022-07-31T02:48:01.625Z,17.5
2022-07-31T02:49:01.239Z,17.6
2022-07-31T02:50:01.778Z,17.6
2022-07-31T02:51:01.353Z,17.7
2022-07-31T02:52:01.292Z,17.8
2022-07-31T02:53:01.119Z,17.7
2022-07-31T02:54:01.712Z,17.6
2022-07-31T02:55:01.349Z,17.7
2022-07-31T02:56:00.924Z,17.7
2022-07-31T02:57:01.495Z,17.8
2022-07-31T02:58:01.083Z,17.8
2022-07-31T02:59:01.670Z,17.7
2022-07-31T03:00:01.248Z,17.7
2022-07-31T03:01:01.883Z,17.7
2022-07-31T03:02:01.896Z,17.7
2022-07-31T03:03:01.723Z,17.7
2022-07-31T03:04:01.315Z,17.8
2022-07-31T03:05:01.909Z,17.8
2022-07-31T03:06:01.483Z,17.8
2022-07-31T03:07:01.074Z,17.8
2022-07-31T03:08:01.644Z,17.7
2022-07-31T03:09:01.214Z,17.7
2022-07-31T03:10:01.804Z,17.8
2022-07-31T03:11:01.386Z,17.8
2022-07-31T03:12:01.724Z,17.8
2022-07-31T03:13:01.502Z,17.7
2022-07-31T03:14:01.092Z,17.8
2022-07-31T03:15:01.664Z,17.7
2022-07-31T03:16:01.236Z,17.8
2022-07-31T03:17:01.811Z,17.8
2022-07-31T03:18:01.391Z,17.8
2022-07-31T03:19:01.942Z,17.8
2022-07-31T03:20:01.519Z,17.8
2022-07-31T03:21:01.095Z,17.8
2022-07-31T03:22:02.037Z,17.7
2022-07-31T03:23:01.842Z,17.8
2022-07-31T03:24:01.447Z,17.8
2022-07-31T03:25:01.670Z,17.9
2022-07-31T03:26:01.130Z,17.8
2022-07-31T03:27:01.791Z,17.8
2022-07-31T03:28:01.353Z,17.9
2022-07-31T03:29:01.946Z,17.9
2022-07-31T03:30:01.524Z,17.8
2022-07-31T03:31:01.096Z,17.8
2022-07-31T03:32:02.085Z,17.8
2022-07-31T03:33:01.313Z,17.8
2022-07-31T03:34:01.902Z,17.8
2022-07-31T03:35:01.473Z,17.8
2022-07-31T03:36:01.045Z,17.8
2022-07-31T03:37:01.618Z,17.8
2022-07-31T03:38:01.208Z,17.8
2022-07-31T03:39:01.762Z,17.8
2022-07-31T03:40:01.335Z,17.8
2022-07-31T03:41:01.908Z,17.7
2022-07-31T03:42:01.939Z,17.8
2022-07-31T03:43:01.661Z,17.8
2022-07-31T03:44:01.251Z,17.7
2022-07-31T03:45:01.826Z,17.9
2022-07-31T03:46:00.940Z,17.9
2022-07-31T03:47:01.513Z,17.8
2022-07-31T03:48:01.094Z,17.8
2022-07-31T03:49:01.719Z,17.8
2022-07-31T03:50:01.336Z,17.8
2022-07-31T03:51:01.890Z,17.8
2022-07-31T03:52:01.820Z,17.7
2022-07-31T03:53:01.132Z,17.7
2022-07-31T03:54:01.718Z,17.6
2022-07-31T03:55:01.290Z,17.7
2022-07-31T03:56:01.865Z,17.7
2022-07-31T03:57:01.441Z,17.6
2022-07-31T03:58:01.016Z,17.6
2022-07-31T03:59:01.603Z,17.7
2022-07-31T04:00:01.616Z,17.7
2022-07-31T04:01:01.819Z,17.7
2022-07-31T04:02:01.357Z,17.7
2022-07-31T04:03:01.892Z,17.6
2022-07-31T04:04:01.489Z,17.7
2022-07-31T04:05:01.063Z,17.8
2022-07-31T04:06:01.636Z,17.8
2022-07-31T04:07:01.209Z,17.9
2022-07-31T04:08:01.784Z,18
2022-07-31T04:09:01.386Z,18
2022-07-31T04:10:01.922Z,18.1
2022-07-31T04:11:01.494Z,18.2
2022-07-31T04:12:01.461Z,18.2
2022-07-31T04:13:01.306Z,18.2
2022-07-31T04:14:01.898Z,18.3
2022-07-31T04:15:01.473Z,18.3
2022-07-31T04:16:01.049Z,18.3
2022-07-31T04:17:01.625Z,18.4
2022-07-31T04:18:01.199Z,18.4
2022-07-31T04:19:01.792Z,18.5
2022-07-31T04:20:01.370Z,18.6
2022-07-31T04:21:01.900Z,18.6
2022-07-31T04:22:01.948Z,18.6
2022-07-31T04:23:01.797Z,18.6
2022-07-31T04:24:01.654Z,18.6
2022-07-31T04:25:01.227Z,18.6
2022-07-31T04:26:01.818Z,18.6
2022-07-31T04:27:01.393Z,18.7
2022-07-31T04:28:01.034Z,18.8
2022-07-31T04:29:01.576Z,18.7
2022-07-31T04:30:01.148Z,18.8
2022-07-31T04:31:01.536Z,18.8
2022-07-31T04:32:01.354Z,18.8
2022-07-31T04:33:01.211Z,18.8
2022-07-31T04:34:01.815Z,18.9
2022-07-31T04:35:01.936Z,18.8
2022-07-31T04:36:01.507Z,18.8
2022-07-31T04:37:01.081Z,18.9
2022-07-31T04:38:01.656Z,18.8
2022-07-31T04:39:01.253Z,18.8
2022-07-31T04:40:01.804Z,18.8
2022-07-31T04:41:01.377Z,18.8
2022-07-31T04:42:01.382Z,18.7
2022-07-31T04:43:01.189Z,18.8
2022-07-31T04:44:01.785Z,18.8
2022-07-31T04:45:01.359Z,18.8
2022-07-31T04:46:01.934Z,18.9
2022-07-31T04:47:01.468Z,18.9
2022-07-31T04:48:01.043Z,19
2022-07-31T04:49:01.670Z,19.1
2022-07-31T04:50:01.276Z,19.1
2022-07-31T04:51:01.847Z,19.1
2022-07-31T04:52:01.769Z,19.1
2022-07-31T04:53:01.535Z,19.2
2022-07-31T04:54:01.138Z,19.2
2022-07-31T04:55:01.713Z,19.3
2022-07-31T04:56:01.836Z,19.2
2022-07-31T04:57:01.414Z,19.3
2022-07-31T04:58:00.988Z,19.3
2022-07-31T04:59:01.579Z,19.4
2022-07-31T05:00:01.556Z,19.2
2022-07-31T05:01:01.740Z,19.3
2022-07-31T05:02:01.645Z,19.3
2022-07-31T05:03:01.494Z,19.4
2022-07-31T05:04:01.095Z,19.4
2022-07-31T05:05:01.688Z,19.4
2022-07-31T05:06:01.260Z,19.4
2022-07-31T05:07:01.831Z,19.4
2022-07-31T05:08:01.412Z,19.4
2022-07-31T05:09:03.326Z,19.5
2022-07-31T05:10:01.548Z,19.5
2022-07-31T05:11:01.128Z,19.5
2022-07-31T05:12:02.025Z,19.4
2022-07-31T05:13:01.361Z,19.5
2022-07-31T05:14:01.954Z,19.4
2022-07-31T05:15:01.547Z,19.5
2022-07-31T05:16:01.128Z,19.6
2022-07-31T05:17:01.699Z,19.5
2022-07-31T05:18:01.271Z,19.6
2022-07-31T05:19:01.861Z,19.7
2022-07-31T05:20:01.450Z,19.7
2022-07-31T05:21:01.026Z,19.8
2022-07-31T05:22:02.505Z,19.9
2022-07-31T05:23:01.139Z,19.9
2022-07-31T05:24:01.711Z,20
2022-07-31T05:25:01.301Z,20
2022-07-31T05:26:01.876Z,20
2022-07-31T05:27:01.471Z,20.2
2022-07-31T05:28:01.118Z,20.3
2022-07-31T05:29:01.343Z,20.3
2022-07-31T05:30:01.939Z,20.3
2022-07-31T05:31:01.516Z,20.3
2022-07-31T05:32:01.409Z,20.4
2022-07-31T05:33:01.670Z,20.4
2022-07-31T05:34:01.261Z,20.4
2022-07-31T05:35:01.830Z,20.4
2022-07-31T05:36:01.418Z,20.4
2022-07-31T05:37:01.478Z,20.5
2022-07-31T05:38:01.179Z,20.5
2022-07-31T05:39:01.773Z,20.5
2022-07-31T05:40:01.345Z,20.5
2022-07-31T05:41:01.918Z,20.5
2022-07-31T05:42:01.856Z,20.5
2022-07-31T05:43:01.150Z,20.6
2022-07-31T05:44:01.743Z,20.5
2022-07-31T05:45:01.313Z,20.5
2022-07-31T05:46:01.891Z,20.6
2022-07-31T05:47:01.465Z,20.7
2022-07-31T05:48:01.054Z,20.6
2022-07-31T05:49:01.720Z,20.7
2022-07-31T05:50:01.282Z,20.8
2022-07-31T05:51:05.332Z,20.8
2022-07-31T05:52:01.748Z,20.9
2022-07-31T05:53:01.102Z,20.8
2022-07-31T05:54:01.691Z,21
2022-07-31T05:55:01.269Z,21.1
2022-07-31T05:56:01.842Z,21.1
2022-07-31T05:57:01.419Z,21.1
2022-07-31T05:58:00.992Z,21.2
2022-07-31T05:59:01.598Z,21.2
2022-07-31T06:00:03.669Z,21.2
2022-07-31T06:01:01.791Z,21.1
2022-07-31T06:02:01.742Z,21.2
2022-07-31T06:03:01.569Z,21.2
2022-07-31T06:04:01.157Z,21.2
2022-07-31T06:05:01.747Z,21.3
2022-07-31T06:06:01.069Z,21.2
2022-07-31T06:07:01.640Z,21.2
2022-07-31T06:08:01.214Z,21.1
2022-07-31T06:09:04.601Z,21.2
2022-07-31T06:10:01.359Z,21.3
2022-07-31T06:11:01.939Z,21.3
2022-07-31T06:12:01.841Z,21.4
2022-07-31T06:13:01.181Z,21.3
2022-07-31T06:14:01.774Z,21.4
2022-07-31T06:15:01.347Z,21.3
2022-07-31T06:16:01.919Z,21.3
2022-07-31T06:17:01.514Z,21.2
2022-07-31T06:18:01.087Z,21.2
2022-07-31T06:19:01.659Z,21.2
2022-07-31T06:20:01.234Z,21.3
2022-07-31T06:21:01.807Z,21.3
2022-07-31T06:22:01.393Z,21.3
2022-07-31T06:23:01.953Z,21.4
2022-07-31T06:24:01.491Z,21.7
2022-07-31T06:25:01.968Z,21.6
2022-07-31T06:26:01.831Z,21.5
2022-07-31T06:27:01.170Z,21.7
2022-07-31T06:28:02.236Z,21.7
2022-07-31T06:29:01.357Z,21.6
2022-07-31T06:30:01.949Z,21.5
2022-07-31T06:31:01.533Z,21.7
2022-07-31T06:32:01.470Z,21.7
2022-07-31T06:33:01.664Z,21.5
2022-07-31T06:34:01.196Z,21.4
2022-07-31T06:35:01.770Z,21.5
2022-07-31T06:36:01.344Z,21.5
2022-07-31T06:37:01.917Z,21.4
2022-07-31T06:38:01.506Z,21.3
2022-07-31T06:39:01.081Z,21.7
2022-07-31T06:40:01.655Z,21.7
2022-07-31T06:41:01.356Z,21.6
2022-07-31T06:42:02.126Z,21.6
2022-07-31T06:43:06.416Z,21.5
2022-07-31T06:44:01.412Z,21.6
2022-07-31T06:45:01.723Z,21.6
2022-07-31T06:46:01.297Z,21.7
2022-07-31T06:47:01.887Z,21.8
2022-07-31T06:48:01.462Z,21.8
2022-07-31T06:49:03.528Z,21.7
2022-07-31T06:50:01.573Z,21.6
2022-07-31T06:51:28.188Z,21.8
2022-07-31T06:52:04.888Z,22.2
2022-07-31T06:53:01.239Z,22.3
2022-07-31T06:54:01.817Z,22.2
2022-07-31T06:55:01.393Z,22.2
2022-07-31T06:56:01.989Z,22.1
2022-07-31T06:57:01.561Z,22.1
2022-07-31T06:58:01.132Z,22.2
2022-07-31T06:59:01.704Z,22.1
2022-07-31T07:00:04.358Z,22.2
2022-07-31T07:01:01.882Z,21.8
2022-07-31T07:02:01.823Z,21.8
2022-07-31T07:03:01.051Z,21.8
2022-07-31T07:04:01.630Z,21.6
2022-07-31T07:05:05.429Z,21.5
2022-07-31T07:06:01.757Z,21.5
2022-07-31T07:07:01.348Z,21.5
2022-07-31T07:08:01.903Z,21.8
2022-07-31T07:09:01.475Z,22
2022-07-31T07:10:01.069Z,22
2022-07-31T07:11:01.639Z,21.7
2022-07-31T07:12:01.347Z,21.6
2022-07-31T07:13:01.801Z,21.6
2022-07-31T07:14:01.372Z,21.4
2022-07-31T07:15:01.957Z,21.4
2022-07-31T07:16:01.544Z,21.4
2022-07-31T07:17:01.138Z,21.3
2022-07-31T07:18:01.699Z,21.5
2022-07-31T07:19:01.274Z,21.7
2022-07-31T07:20:01.853Z,21.9
2022-07-31T07:21:01.437Z,21.9
2022-07-31T07:22:01.155Z,21.9
2022-07-31T07:23:01.609Z,22
2022-07-31T07:24:01.181Z,22.2
2022-07-31T07:25:01.757Z,22.3
2022-07-31T07:26:01.330Z,22.6
2022-07-31T07:27:01.924Z,22.8
2022-07-31T07:28:01.497Z,22.6
2022-07-31T07:29:01.087Z,22.3
2022-07-31T07:30:01.729Z,22.3
2022-07-31T07:31:01.306Z,22.5
2022-07-31T07:32:02.058Z,22.2
2022-07-31T07:33:01.413Z,22.1
2022-07-31T07:34:02.006Z,22.1
2022-07-31T07:35:01.583Z,22.4
2022-07-31T07:36:01.159Z,22.4
2022-07-31T07:37:01.732Z,22.2
2022-07-31T07:38:01.318Z,22.2
2022-07-31T07:39:01.906Z,22.1
2022-07-31T07:40:02.633Z,22.1
2022-07-31T07:41:01.017Z,22.4
2022-07-31T07:42:01.929Z,22.6
2022-07-31T07:43:03.087Z,22.8
2022-07-31T07:44:01.812Z,22.8
2022-07-31T07:45:02.284Z,22.6
2022-07-31T07:46:01.927Z,22.5
2022-07-31T07:47:01.497Z,22.6
2022-07-31T07:48:06.926Z,22.7
2022-07-31T07:49:01.698Z,22.7
2022-07-31T07:50:01.314Z,22.5
2022-07-31T07:51:01.898Z,22.3
2022-07-31T07:52:01.469Z,22.3
2022-07-31T07:53:01.043Z,22.2
2022-07-31T07:54:01.631Z,22.2
2022-07-31T07:55:01.202Z,22.2
2022-07-31T07:56:01.796Z,22.4
2022-07-31T07:57:01.369Z,22.5
2022-07-31T07:58:01.945Z,22.4
2022-07-31T07:59:01.519Z,22.3
2022-07-31T08:00:01.095Z,22.3
2022-07-31T08:01:01.831Z,22.3
2022-07-31T08:02:01.573Z,22.7
2022-07-31T08:03:02.978Z,23
2022-07-31T08:04:01.446Z,23.2
2022-07-31T08:05:01.022Z,23.3
2022-07-31T08:06:01.610Z,23.1
2022-07-31T08:07:01.183Z,22.4
2022-07-31T08:08:01.756Z,22.1
2022-07-31T08:09:01.332Z,22.1
2022-07-31T08:10:01.904Z,22.3
2022-07-31T08:11:01.588Z,22.7
2022-07-31T08:12:01.364Z,22.7
2022-07-31T08:13:01.724Z,22.9
2022-07-31T08:14:01.297Z,23.2
2022-07-31T08:15:01.869Z,22.9
2022-07-31T08:16:01.454Z,23.2
2022-07-31T08:17:01.043Z,23.4
2022-07-31T08:18:01.607Z,23.4
2022-07-31T08:19:01.185Z,23.6
2022-07-31T08:20:01.765Z,23.6
2022-07-31T08:21:01.356Z,23.4
2022-07-31T08:22:02.164Z,23.2
2022-07-31T08:23:01.585Z,23.1
2022-07-31T08:24:01.168Z,23.2
2022-07-31T08:25:05.245Z,23.1
2022-07-31T08:26:01.296Z,22.6
2022-07-31T08:27:01.891Z,22.2
2022-07-31T08:28:01.429Z,22.5
2022-07-31T08:29:05.027Z,22.3
2022-07-31T08:30:01.550Z,22.2
2022-07-31T08:31:01.222Z,22.4
2022-07-31T08:32:02.039Z,22.5
2022-07-31T08:33:01.360Z,22.5
2022-07-31T08:34:01.935Z,22.3
2022-07-31T08:35:01.515Z,22.3
2022-07-31T08:36:01.120Z,22.2
2022-07-31T08:37:50.562Z,22.5
2022-07-31T08:38:04.075Z,22.8
2022-07-31T08:39:01.763Z,22.9
2022-07-31T08:40:01.341Z,23
2022-07-31T08:41:01.933Z,23.1
2022-07-31T08:42:01.795Z,23
2022-07-31T08:43:01.748Z,22.6
2022-07-31T08:44:04.279Z,22.6
2022-07-31T08:45:01.153Z,22.7
2022-07-31T08:46:01.728Z,22.7
2022-07-31T08:47:01.327Z,22.8
2022-07-31T08:48:01.886Z,22.6
2022-07-31T08:49:01.533Z,22.4
2022-07-31T08:50:01.042Z,22.6
2022-07-31T08:51:01.616Z,22.7
2022-07-31T08:52:01.215Z,22.5
2022-07-31T08:53:01.771Z,22.7
2022-07-31T08:54:01.344Z,23
2022-07-31T08:55:01.918Z,23.2
2022-07-31T08:56:01.493Z,23.3
2022-07-31T08:57:01.172Z,23.5
2022-07-31T08:58:01.663Z,23.6
2022-07-31T08:59:01.239Z,23.3
2022-07-31T09:00:01.820Z,23.3
2022-07-31T09:01:01.448Z,23.4
2022-07-31T09:02:02.399Z,23.7
2022-07-31T09:03:01.074Z,23.8
2022-07-31T09:04:01.650Z,23.8
2022-07-31T09:05:01.822Z,23.6
2022-07-31T09:06:01.396Z,23.3
2022-07-31T09:07:02.218Z,23
2022-07-31T09:08:01.948Z,22.4
2022-07-31T09:09:01.487Z,22.1
2022-07-31T09:10:01.812Z,22.2
2022-07-31T09:11:01.384Z,22.4
2022-07-31T09:12:01.119Z,22.6
2022-07-31T09:13:01.559Z,22.8
2022-07-31T09:14:01.371Z,22.8
2022-07-31T09:15:01.917Z,22.3
2022-07-31T09:16:01.391Z,22.6
2022-07-31T09:17:02.214Z,22.8
2022-07-31T09:18:01.986Z,22.6
2022-07-31T09:19:01.221Z,22.3
2022-07-31T09:20:01.794Z,22.2
2022-07-31T09:21:02.027Z,22.3
2022-07-31T09:22:01.803Z,22.3
2022-07-31T09:23:01.381Z,22.3
2022-07-31T09:24:01.956Z,22.4
2022-07-31T09:25:01.532Z,22.3
2022-07-31T09:26:01.145Z,22.5
2022-07-31T09:27:01.909Z,22.3
2022-07-31T09:28:01.231Z,22.4
2022-07-31T09:29:01.806Z,22.4
2022-07-31T09:30:01.583Z,22.5
2022-07-31T09:31:01.977Z,22.6
2022-07-31T09:32:01.644Z,22.6
2022-07-31T09:33:01.213Z,22.6
2022-07-31T09:34:01.821Z,22.7
2022-07-31T09:35:01.403Z,22.6
2022-07-31T09:36:01.982Z,22.5
2022-07-31T09:37:01.826Z,22.6
2022-07-31T09:38:01.226Z,22.4
2022-07-31T09:39:04.308Z,22.5
2022-07-31T09:40:01.832Z,22.5
2022-07-31T09:41:01.056Z,22.4
2022-07-31T09:42:16.709Z,22.3
2022-07-31T09:43:03.008Z,22.4
2022-07-31T09:44:01.679Z,22.5
2022-07-31T09:45:01.256Z,22.5
2022-07-31T09:46:01.827Z,22.2
2022-07-31T09:47:01.717Z,22.3
2022-07-31T09:48:01.514Z,22.1
2022-07-31T09:49:01.141Z,22.3
2022-07-31T09:50:01.751Z,22.6
2022-07-31T09:51:01.328Z,22.4
2022-07-31T09:52:01.903Z,22.2
2022-07-31T09:53:01.487Z,22
2022-07-31T09:54:01.059Z,22
2022-07-31T09:55:01.635Z,22.3
2022-07-31T09:56:01.205Z,22.5
2022-07-31T09:57:01.969Z,22.8
2022-07-31T09:58:01.437Z,22.5
2022-07-31T09:59:02.014Z,22.4
2022-07-31T10:00:01.598Z,22.4
2022-07-31T10:01:01.247Z,22.3
2022-07-31T10:02:01.773Z,22.3
2022-07-31T10:03:01.363Z,22.1
2022-07-31T10:04:01.928Z,22.2
2022-07-31T10:05:01.504Z,22.3
2022-07-31T10:06:01.078Z,22.5
2022-07-31T10:07:02.002Z,22.7
2022-07-31T10:08:01.857Z,22.5
2022-07-31T10:09:01.439Z,22.6
2022-07-31T10:10:02.013Z,22.4
2022-07-31T10:11:01.139Z,22.5
2022-07-31T10:12:01.712Z,22.5
2022-07-31T10:13:01.307Z,22.6
2022-07-31T10:14:01.883Z,22.7
2022-07-31T10:15:01.454Z,22.7
2022-07-31T10:16:02.037Z,22.6
2022-07-31T10:17:01.821Z,22.8
2022-07-31T10:18:01.261Z,23.2
2022-07-31T10:19:01.855Z,23.4
2022-07-31T10:20:01.429Z,23.4
2022-07-31T10:21:02.005Z,23.3
2022-07-31T10:22:01.603Z,23.4
2022-07-31T10:23:01.177Z,23.7
2022-07-31T10:24:01.762Z,23.6
2022-07-31T10:25:01.333Z,23.6
2022-07-31T10:26:01.914Z,23.7
2022-07-31T10:27:07.605Z,23.8
2022-07-31T10:28:02.034Z,23.8
2022-07-31T10:29:01.621Z,23.8
2022-07-31T10:30:01.200Z,23.9
2022-07-31T10:31:01.773Z,24.5
2022-07-31T10:32:01.360Z,24.2
2022-07-31T10:33:02.008Z,24.4
2022-07-31T10:34:01.597Z,24.2
2022-07-31T10:35:01.181Z,23.9
2022-07-31T10:36:01.749Z,23.8
2022-07-31T10:37:01.443Z,24.4
2022-07-31T10:38:01.909Z,24.6
2022-07-31T10:39:01.480Z,24.8
2022-07-31T10:40:02.109Z,25.3
2022-07-31T10:41:01.685Z,25.3
2022-07-31T10:42:01.256Z,24.2
2022-07-31T10:43:01.827Z,24
2022-07-31T10:44:01.691Z,24
2022-07-31T10:45:01.071Z,23.7
2022-07-31T10:46:01.662Z,23.9
2022-07-31T10:47:01.356Z,24.5
2022-07-31T10:48:01.821Z,25
2022-07-31T10:49:08.399Z,25
2022-07-31T10:50:01.949Z,25.4
2022-07-31T10:51:01.562Z,25.3
2022-07-31T10:52:01.140Z,25
2022-07-31T10:53:01.718Z,25.2
2022-07-31T10:54:01.291Z,25.8
2022-07-31T10:55:01.652Z,25.9
2022-07-31T10:56:01.263Z,26.3
2022-07-31T10:57:02.260Z,26.1
2022-07-31T10:58:02.052Z,26.1
2022-07-31T10:59:01.629Z,26.1
2022-07-31T11:00:01.209Z,26.3
2022-07-31T11:01:01.804Z,26.2
2022-07-31T11:02:01.931Z,25.5
2022-07-31T11:03:01.532Z,24.9
2022-07-31T11:04:01.111Z,24.5
2022-07-31T11:05:01.685Z,24.6
2022-07-31T11:06:02.984Z,24.4
2022-07-31T11:07:01.854Z,24.3
2022-07-31T11:08:01.490Z,24
2022-07-31T11:09:02.065Z,23.9
2022-07-31T11:10:01.642Z,24.1
2022-07-31T11:11:01.801Z,24.4
2022-07-31T11:12:01.768Z,24.5
2022-07-31T11:13:01.340Z,24.7
2022-07-31T11:14:01.927Z,24.9
2022-07-31T11:15:01.501Z,24.9
2022-07-31T11:16:01.507Z,24.7
2022-07-31T11:17:01.760Z,24.4
2022-07-31T11:18:16.499Z,23.9
2022-07-31T11:19:01.877Z,23.8
2022-07-31T11:20:01.450Z,23.8
2022-07-31T11:21:13.519Z,24.1
2022-07-31T11:22:31.129Z,24.1
2022-07-31T11:23:01.098Z,24
2022-07-31T11:24:02.919Z,23.9
2022-07-31T11:25:01.233Z,23.8
2022-07-31T11:26:01.806Z,23.8
2022-07-31T11:27:01.505Z,24
2022-07-31T11:28:01.962Z,24
2022-07-31T11:29:58.249Z,23.8
2022-07-31T11:30:03.968Z,23.8
2022-07-31T11:31:01.628Z,23.5
2022-07-31T11:32:01.209Z,23.4
2022-07-31T11:33:01.785Z,23.2
2022-07-31T11:34:01.472Z,23.3
2022-07-31T11:35:01.956Z,23.4
2022-07-31T11:36:01.532Z,23.2
2022-07-31T11:37:01.106Z,23.2
2022-07-31T11:38:01.641Z,23.2
2022-07-31T11:39:01.212Z,23.2
2022-07-31T11:40:01.761Z,23.2
2022-07-31T11:41:01.962Z,23.1
2022-07-31T11:42:01.556Z,23.2
2022-07-31T11:44:01.661Z,23.5
2022-07-31T11:45:01.868Z,23.6
2022-07-31T11:46:01.422Z,23.7
2022-07-31T11:47:02.483Z,23.8
2022-07-31T11:48:09.351Z,23.6
2022-07-31T11:49:01.782Z,23.6
2022-07-31T11:50:01.493Z,23.8
2022-07-31T11:51:01.194Z,23.9
2022-07-31T11:52:01.779Z,23.8
2022-07-31T11:53:01.354Z,23.8
2022-07-31T11:54:01.931Z,24.2
2022-07-31T11:55:04.289Z,24
2022-07-31T11:56:02.042Z,24
2022-07-31T11:57:01.785Z,23.9
2022-07-31T11:58:01.332Z,24
2022-07-31T11:59:01.903Z,24
2022-07-31T12:00:01.564Z,24.1
2022-07-31T12:01:01.098Z,24.3
2022-07-31T12:02:01.687Z,24.4
2022-07-31T12:03:01.323Z,24.3
2022-07-31T12:04:07.680Z,24.3
2022-07-31T12:05:01.384Z,24.1
2022-07-31T12:06:01.968Z,23.9
2022-07-31T12:07:01.916Z,23.8
2022-07-31T12:08:01.728Z,24
2022-07-31T12:09:01.373Z,24.1
2022-07-31T12:10:03.633Z,24.3
2022-07-31T12:11:01.418Z,24.3
2022-07-31T12:12:02.005Z,23.9
2022-07-31T12:13:01.580Z,24
2022-07-31T12:14:01.177Z,23.9
2022-07-31T12:15:01.744Z,23.8
2022-07-31T12:16:01.319Z,23.7
2022-07-31T12:17:02.029Z,23.9
2022-07-31T12:18:01.557Z,23.9
2022-07-31T12:19:01.133Z,23.8
2022-07-31T12:20:01.705Z,23.4
2022-07-31T12:21:01.280Z,23.3
2022-07-31T12:22:01.876Z,23.5
2022-07-31T12:23:01.451Z,23.6
2022-07-31T12:24:02.033Z,23.7
2022-07-31T12:25:04.024Z,23.7
2022-07-31T12:26:01.139Z,23.8
2022-07-31T12:27:01.806Z,23.9
2022-07-31T12:28:01.391Z,24.1
2022-07-31T12:29:01.973Z,24.6
2022-07-31T12:30:01.550Z,24.9
2022-07-31T12:31:01.123Z,24.9
2022-07-31T12:32:01.695Z,25.3
2022-07-31T12:33:01.268Z,25.4
2022-07-31T12:34:01.857Z,25.6
2022-07-31T12:35:01.981Z,25.7
2022-07-31T12:36:01.634Z,25.1
2022-07-31T12:37:01.325Z,24.9
2022-07-31T12:38:10.335Z,24.7
2022-07-31T12:39:01.616Z,24.9
2022-07-31T12:40:01.731Z,24.9
2022-07-31T12:41:01.376Z,24.9
2022-07-31T12:42:01.225Z,24.7
2022-07-31T12:43:01.821Z,24.7
2022-07-31T12:44:01.392Z,25.3
2022-07-31T12:45:08.353Z,25.8
2022-07-31T12:46:01.498Z,25.8
2022-07-31T12:47:02.372Z,25.9
2022-07-31T12:48:01.185Z,25.8
2022-07-31T12:49:01.801Z,25.8
2022-07-31T12:50:01.942Z,26.1
2022-07-31T12:51:01.539Z,25.9
2022-07-31T12:52:01.114Z,25.6
2022-07-31T12:53:01.709Z,25.8
2022-07-31T12:54:01.298Z,25.8
2022-07-31T12:55:01.870Z,25.8
2022-07-31T12:56:01.444Z,26.1
2022-07-31T12:57:02.233Z,26.1
2022-07-31T12:58:01.927Z,26.3
2022-07-31T12:59:01.263Z,26.3
2022-07-31T13:00:01.906Z,26.5
2022-07-31T13:01:01.499Z,26.5
2022-07-31T13:02:02.129Z,25.6
2022-07-31T13:03:01.780Z,25.4
2022-07-31T13:04:01.313Z,25.7
2022-07-31T13:05:01.865Z,25.5
2022-07-31T13:06:01.437Z,25.4
2022-07-31T13:07:02.356Z,25.5
2022-07-31T13:08:01.692Z,25.8
2022-07-31T13:09:01.251Z,26.2
2022-07-31T13:10:14.739Z,26.3
2022-07-31T13:11:01.361Z,26.3
2022-07-31T13:12:01.935Z,26
2022-07-31T13:13:01.522Z,25.9
2022-07-31T13:14:02.112Z,25.7
2022-07-31T13:15:01.687Z,25.6
2022-07-31T13:16:01.260Z,25.4
2022-07-31T13:17:02.238Z,25.3
2022-07-31T13:18:01.496Z,25.2
2022-07-31T13:19:02.089Z,25.1
2022-07-31T13:20:01.664Z,25.1
2022-07-31T13:21:01.238Z,25.3
2022-07-31T13:22:01.816Z,25.8